sensor_id;sensor_type;location;lat;lon;timestamp;temperature;humidity
9973;DHT22;5027;53.560;10.062;2022-07-29T00:01:49;19.40;99.90
9973;DHT22;5027;53.560;10.062;2022-07-29T00:04:16;19.50;99.90
9973;DHT22;5027;53.560;10.062;2022-07-29T00:06:43;19.40;99.90
9973;DHT22;5027;53.560;10.062;2022-07-29T00:09:10;19.50;99.90
9973;DHT22;5027;53.560;10.062;2022-07-29T00:11:37;19.40;99.90
9973;DHT22;5027;53.560;10.062;2022-07-29T00:14:03;19.40;99.90
9973;DHT22;5027;53.560;10.062;2022-07-29T00:16:30;19.40;99.90
9973;DHT22;5027;53.560;10.062;2022-07-29T00:18:57;19.40;99.90
9973;DHT22;5027;53.560;10.062;2022-07-29T00:21:27;19.30;99.90
9973;DHT22;5027;53.560;10.062;2022-07-29T00:23:54;19.30;99.90
9973;DHT22;5027;53.560;10.062;2022-07-29T00:26:21;19.30;99.90
9973;DHT22;5027;53.560;10.062;2022-07-29T00:28:48;19.30;99.90
9973;DHT22;5027;53.560;10.062;2022-07-29T00:31:14;19.30;99.90
9973;DHT22;5027;53.560;10.062;2022-07-29T00:33:41;19.30;99.90
9973;DHT22;5027;53.560;10.062;2022-07-29T00:36:08;19.30;99.90
9973;DHT22;5027;53.560;10.062;2022-07-29T00:38:34;19.30;99.90
9973;DHT22;5027;53.560;10.062;2022-07-29T00:41:01;19.30;99.90
9973;DHT22;5027;53.560;10.062;2022-07-29T00:43:28;19.30;99.90
9973;DHT22;5027;53.560;10.062;2022-07-29T00:45:55;19.30;99.90
9973;DHT22;5027;53.560;10.062;2022-07-29T00:48:21;19.20;99.90
9973;DHT22;5027;53.560;10.062;2022-07-29T00:50:49;19.20;99.90
9973;DHT22;5027;53.560;10.062;2022-07-29T00:53:16;19.10;99.90
9973;DHT22;5027;53.560;10.062;2022-07-29T00:55:42;19.20;99.90
9973;DHT22;5027;53.560;10.062;2022-07-29T00:58:12;19.20;99.90
9973;DHT22;5027;53.560;10.062;2022-07-29T01:00:38;19.30;99.90
9973;DHT22;5027;53.560;10.062;2022-07-29T01:03:07;19.30;99.90
9973;DHT22;5027;53.560;10.062;2022-07-29T01:05:34;19.20;99.90
9973;DHT22;5027;53.560;10.062;2022-07-29T01:08:17;19.40;99.90
9973;DHT22;5027;53.560;10.062;2022-07-29T01:10:45;19.40;99.90
9973;DHT22;5027;53.560;10.062;2022-07-29T01:13:14;19.40;99.90
9973;DHT22;5027;53.560;10.062;2022-07-29T01:15:45;19.40;99.90
9973;DHT22;5027;53.560;10.062;2022-07-29T01:18:24;19.40;99.90
9973;DHT22;5027;53.560;10.062;2022-07-29T01:30:01;19.80;99.90
9973;DHT22;5027;53.560;10.062;2022-07-29T01:32:36;19.70;99.90
9973;DHT22;5027;53.560;10.062;2022-07-29T01:35:07;19.60;99.90
9973;DHT22;5027;53.560;10.062;2022-07-29T01:40:35;19.90;99.90
9973;DHT22;5027;53.560;10.062;2022-07-29T01:43:09;19.90;99.90
9973;DHT22;5027;53.560;10.062;2022-07-29T01:45:56;20.00;99.90
9973;DHT22;5027;53.560;10.062;2022-07-29T01:48:31;20.30;99.90
9973;DHT22;5027;53.560;10.062;2022-07-29T01:53:53;20.00;99.90
9973;DHT22;5027;53.560;10.062;2022-07-29T01:56:23;20.10;99.90
9973;DHT22;5027;53.560;10.062;2022-07-29T01:58:52;20.10;99.90
9973;DHT22;5027;53.560;10.062;2022-07-29T02:01:21;20.00;99.90
9973;DHT22;5027;53.560;10.062;2022-07-29T02:03:50;20.00;99.90
9973;DHT22;5027;53.560;10.062;2022-07-29T02:06:22;19.90;99.90
9973;DHT22;5027;53.560;10.062;2022-07-29T02:08:51;19.90;99.90
9973;DHT22;5027;53.560;10.062;2022-07-29T02:11:19;20.00;99.90
9973;DHT22;5027;53.560;10.062;2022-07-29T02:13:46;19.90;99.90
9973;DHT22;5027;53.560;10.062;2022-07-29T02:16:15;19.80;99.90
9973;DHT22;5027;53.560;10.062;2022-07-29T02:18:45;19.90;99.90
9973;DHT22;5027;53.560;10.062;2022-07-29T02:21:13;19.70;99.90
9973;DHT22;5027;53.560;10.062;2022-07-29T02:23:42;19.80;99.90
9973;DHT22;5027;53.560;10.062;2022-07-29T02:26:18;19.90;99.90
9973;DHT22;5027;53.560;10.062;2022-07-29T02:28:46;19.80;99.90
9973;DHT22;5027;53.560;10.062;2022-07-29T02:31:13;19.80;99.90
9973;DHT22;5027;53.560;10.062;2022-07-29T02:33:41;19.80;99.90
9973;DHT22;5027;53.560;10.062;2022-07-29T02:36:09;19.90;99.90
9973;DHT22;5027;53.560;10.062;2022-07-29T02:38:37;19.80;99.90
9973;DHT22;5027;53.560;10.062;2022-07-29T02:41:21;20.00;99.90
9973;DHT22;5027;53.560;10.062;2022-07-29T02:43:54;20.00;99.90
9973;DHT22;5027;53.560;10.062;2022-07-29T02:46:29;19.80;99.90
9973;DHT22;5027;53.560;10.062;2022-07-29T02:52:00;19.80;99.90
9973;DHT22;5027;53.560;10.062;2022-07-29T02:57:10;19.70;99.90
9973;DHT22;5027;53.560;10.062;2022-07-29T02:59:42;19.80;99.90
9973;DHT22;5027;53.560;10.062;2022-07-29T03:02:11;19.70;99.90
9973;DHT22;5027;53.560;10.062;2022-07-29T03:04:41;19.70;99.90
9973;DHT22;5027;53.560;10.062;2022-07-29T03:07:11;19.70;99.90
9973;DHT22;5027;53.560;10.062;2022-07-29T03:09:40;19.80;99.90
9973;DHT22;5027;53.560;10.062;2022-07-29T03:12:08;19.70;99.90
9973;DHT22;5027;53.560;10.062;2022-07-29T03:14:35;19.60;99.90
9973;DHT22;5027;53.560;10.062;2022-07-29T03:17:03;19.60;99.90
9973;DHT22;5027;53.560;10.062;2022-07-29T03:19:31;19.60;99.90
9973;DHT22;5027;53.560;10.062;2022-07-29T03:21:58;19.60;99.90
9973;DHT22;5027;53.560;10.062;2022-07-29T03:24:31;19.50;99.90
9973;DHT22;5027;53.560;10.062;2022-07-29T03:26:59;19.50;99.90
9973;DHT22;5027;53.560;10.062;2022-07-29T03:29:26;19.70;99.90
9973;DHT22;5027;53.560;10.062;2022-07-29T03:32:00;19.60;99.90
9973;DHT22;5027;53.560;10.062;2022-07-29T03:34:29;19.60;99.90
9973;DHT22;5027;53.560;10.062;2022-07-29T03:36:55;19.60;99.90
9973;DHT22;5027;53.560;10.062;2022-07-29T03:39:25;19.60;99.90
9973;DHT22;5027;53.560;10.062;2022-07-29T03:41:55;19.60;99.90
9973;DHT22;5027;53.560;10.062;2022-07-29T03:44:23;19.60;99.90
9973;DHT22;5027;53.560;10.062;2022-07-29T03:46:52;19.80;99.90
9973;DHT22;5027;53.560;10.062;2022-07-29T03:49:21;19.80;99.90
9973;DHT22;5027;53.560;10.062;2022-07-29T03:51:49;19.90;99.90
9973;DHT22;5027;53.560;10.062;2022-07-29T03:54:16;19.90;99.90
9973;DHT22;5027;53.560;10.062;2022-07-29T03:56:46;19.90;99.90
9973;DHT22;5027;53.560;10.062;2022-07-29T03:59:16;19.80;99.90
9973;DHT22;5027;53.560;10.062;2022-07-29T04:01:44;19.90;99.90
9973;DHT22;5027;53.560;10.062;2022-07-29T04:04:12;19.90;99.90
9973;DHT22;5027;53.560;10.062;2022-07-29T04:06:41;19.90;99.90
9973;DHT22;5027;53.560;10.062;2022-07-29T04:09:08;19.70;99.90
9973;DHT22;5027;53.560;10.062;2022-07-29T04:11:37;19.70;99.90
9973;DHT22;5027;53.560;10.062;2022-07-29T04:14:24;19.80;99.90
9973;DHT22;5027;53.560;10.062;2022-07-29T04:16:51;19.90;99.90
9973;DHT22;5027;53.560;10.062;2022-07-29T04:19:19;19.70;99.90
9973;DHT22;5027;53.560;10.062;2022-07-29T04:21:46;19.70;99.90
9973;DHT22;5027;53.560;10.062;2022-07-29T04:24:12;19.80;99.90
9973;DHT22;5027;53.560;10.062;2022-07-29T04:26:40;19.90;99.90
9973;DHT22;5027;53.560;10.062;2022-07-29T04:29:07;20.00;99.90
9973;DHT22;5027;53.560;10.062;2022-07-29T04:31:33;19.90;99.90
9973;DHT22;5027;53.560;10.062;2022-07-29T04:34:00;20.00;99.90
9973;DHT22;5027;53.560;10.062;2022-07-29T04:36:27;20.20;99.90
9973;DHT22;5027;53.560;10.062;2022-07-29T04:38:55;20.10;99.90
9973;DHT22;5027;53.560;10.062;2022-07-29T04:41:22;20.00;99.90
9973;DHT22;5027;53.560;10.062;2022-07-29T04:43:58;19.90;99.90
9973;DHT22;5027;53.560;10.062;2022-07-29T04:46:27;19.90;99.90
9973;DHT22;5027;53.560;10.062;2022-07-29T04:48:54;20.30;99.90
9973;DHT22;5027;53.560;10.062;2022-07-29T04:51:21;20.40;99.90
9973;DHT22;5027;53.560;10.062;2022-07-29T04:53:48;20.30;99.90
9973;DHT22;5027;53.560;10.062;2022-07-29T04:56:15;20.30;99.90
9973;DHT22;5027;53.560;10.062;2022-07-29T04:58:41;20.30;99.90
9973;DHT22;5027;53.560;10.062;2022-07-29T05:01:08;20.30;99.90
9973;DHT22;5027;53.560;10.062;2022-07-29T05:03:35;20.20;99.90
9973;DHT22;5027;53.560;10.062;2022-07-29T05:06:02;20.20;99.90
9973;DHT22;5027;53.560;10.062;2022-07-29T05:08:28;20.10;99.90
9973;DHT22;5027;53.560;10.062;2022-07-29T05:10:55;20.10;99.90
9973;DHT22;5027;53.560;10.062;2022-07-29T05:13:22;20.00;99.90
9973;DHT22;5027;53.560;10.062;2022-07-29T05:15:49;20.00;99.90
9973;DHT22;5027;53.560;10.062;2022-07-29T05:18:16;20.00;99.90
9973;DHT22;5027;53.560;10.062;2022-07-29T05:20:43;19.90;99.90
9973;DHT22;5027;53.560;10.062;2022-07-29T05:23:09;19.90;99.90
9973;DHT22;5027;53.560;10.062;2022-07-29T05:25:39;19.90;99.90
9973;DHT22;5027;53.560;10.062;2022-07-29T05:28:10;20.10;99.90
9973;DHT22;5027;53.560;10.062;2022-07-29T05:30:37;20.50;99.90
9973;DHT22;5027;53.560;10.062;2022-07-29T05:33:04;20.40;99.90
9973;DHT22;5027;53.560;10.062;2022-07-29T05:35:31;20.10;99.90
9973;DHT22;5027;53.560;10.062;2022-07-29T05:37:58;20.00;99.90
9973;DHT22;5027;53.560;10.062;2022-07-29T05:40:25;20.10;99.90
9973;DHT22;5027;53.560;10.062;2022-07-29T05:42:51;20.20;99.90
9973;DHT22;5027;53.560;10.062;2022-07-29T05:45:18;20.50;99.90
9973;DHT22;5027;53.560;10.062;2022-07-29T05:47:45;20.40;99.90
9973;DHT22;5027;53.560;10.062;2022-07-29T05:50:12;20.70;99.90
9973;DHT22;5027;53.560;10.062;2022-07-29T05:52:39;20.60;99.90
9973;DHT22;5027;53.560;10.062;2022-07-29T05:55:06;20.60;99.90
9973;DHT22;5027;53.560;10.062;2022-07-29T05:57:33;20.50;99.90
9973;DHT22;5027;53.560;10.062;2022-07-29T05:59:59;20.80;99.90
9973;DHT22;5027;53.560;10.062;2022-07-29T06:02:26;20.80;99.90
9973;DHT22;5027;53.560;10.062;2022-07-29T06:04:53;20.50;99.90
9973;DHT22;5027;53.560;10.062;2022-07-29T06:07:20;20.60;99.90
9973;DHT22;5027;53.560;10.062;2022-07-29T06:09:46;20.40;99.90
9973;DHT22;5027;53.560;10.062;2022-07-29T06:12:13;20.40;99.90
9973;DHT22;5027;53.560;10.062;2022-07-29T06:14:41;20.50;99.90
9973;DHT22;5027;53.560;10.062;2022-07-29T06:17:07;20.60;99.90
9973;DHT22;5027;53.560;10.062;2022-07-29T06:19:35;20.60;99.90
9973;DHT22;5027;53.560;10.062;2022-07-29T06:22:03;20.80;99.90
9973;DHT22;5027;53.560;10.062;2022-07-29T06:24:30;21.00;99.90
9973;DHT22;5027;53.560;10.062;2022-07-29T06:26:57;20.90;99.90
9973;DHT22;5027;53.560;10.062;2022-07-29T06:29:24;20.70;99.90
9973;DHT22;5027;53.560;10.062;2022-07-29T06:31:51;20.60;99.90
9973;DHT22;5027;53.560;10.062;2022-07-29T06:34:17;20.80;99.90
9973;DHT22;5027;53.560;10.062;2022-07-29T06:36:46;20.90;99.90
9973;DHT22;5027;53.560;10.062;2022-07-29T06:39:14;21.00;99.90
9973;DHT22;5027;53.560;10.062;2022-07-29T06:41:41;21.10;99.90
9973;DHT22;5027;53.560;10.062;2022-07-29T06:44:08;21.10;99.90
9973;DHT22;5027;53.560;10.062;2022-07-29T06:46:35;21.10;99.90
9973;DHT22;5027;53.560;10.062;2022-07-29T06:49:03;21.20;99.90
9973;DHT22;5027;53.560;10.062;2022-07-29T06:51:30;21.20;99.90
9973;DHT22;5027;53.560;10.062;2022-07-29T06:53:57;21.00;99.90
9973;DHT22;5027;53.560;10.062;2022-07-29T06:56:30;20.80;99.90
9973;DHT22;5027;53.560;10.062;2022-07-29T06:59:04;20.70;99.90
9973;DHT22;5027;53.560;10.062;2022-07-29T07:01:31;20.70;99.90
9973;DHT22;5027;53.560;10.062;2022-07-29T07:03:57;20.70;99.90
9973;DHT22;5027;53.560;10.062;2022-07-29T07:06:24;20.70;99.90
9973;DHT22;5027;53.560;10.062;2022-07-29T07:08:51;20.90;99.90
9973;DHT22;5027;53.560;10.062;2022-07-29T07:11:17;20.80;99.90
9973;DHT22;5027;53.560;10.062;2022-07-29T07:13:44;20.80;99.90
9973;DHT22;5027;53.560;10.062;2022-07-29T07:16:11;20.80;99.90
9973;DHT22;5027;53.560;10.062;2022-07-29T07:18:38;20.80;99.90
9973;DHT22;5027;53.560;10.062;2022-07-29T07:21:04;20.70;99.90
9973;DHT22;5027;53.560;10.062;2022-07-29T07:23:32;20.80;99.90
9973;DHT22;5027;53.560;10.062;2022-07-29T07:25:58;21.00;99.90
9973;DHT22;5027;53.560;10.062;2022-07-29T07:28:25;21.10;99.90
9973;DHT22;5027;53.560;10.062;2022-07-29T07:30:52;21.20;99.90
9973;DHT22;5027;53.560;10.062;2022-07-29T07:33:19;21.00;99.90
9973;DHT22;5027;53.560;10.062;2022-07-29T07:35:46;21.00;99.90
9973;DHT22;5027;53.560;10.062;2022-07-29T07:38:13;21.20;99.90
9973;DHT22;5027;53.560;10.062;2022-07-29T07:40:40;21.00;99.90
9973;DHT22;5027;53.560;10.062;2022-07-29T07:43:07;20.90;99.90
9973;DHT22;5027;53.560;10.062;2022-07-29T07:45:34;21.00;99.90
9973;DHT22;5027;53.560;10.062;2022-07-29T07:48:00;21.10;99.90
9973;DHT22;5027;53.560;10.062;2022-07-29T07:50:27;21.00;99.90
9973;DHT22;5027;53.560;10.062;2022-07-29T07:52:55;21.10;99.90
9973;DHT22;5027;53.560;10.062;2022-07-29T07:55:25;21.10;99.90
9973;DHT22;5027;53.560;10.062;2022-07-29T07:57:52;21.10;99.90
9973;DHT22;5027;53.560;10.062;2022-07-29T08:00:19;21.20;99.90
9973;DHT22;5027;53.560;10.062;2022-07-29T08:02:49;21.20;99.90
9973;DHT22;5027;53.560;10.062;2022-07-29T08:05:17;21.20;99.90
9973;DHT22;5027;53.560;10.062;2022-07-29T08:07:45;21.20;99.90
9973;DHT22;5027;53.560;10.062;2022-07-29T08:10:16;21.20;99.90
9973;DHT22;5027;53.560;10.062;2022-07-29T08:13:04;21.20;99.90
9973;DHT22;5027;53.560;10.062;2022-07-29T08:15:30;21.20;99.90
9973;DHT22;5027;53.560;10.062;2022-07-29T08:17:57;21.10;99.90
9973;DHT22;5027;53.560;10.062;2022-07-29T08:20:24;21.00;99.90
9973;DHT22;5027;53.560;10.062;2022-07-29T08:22:51;21.10;99.90
9973;DHT22;5027;53.560;10.062;2022-07-29T08:25:19;21.20;99.90
9973;DHT22;5027;53.560;10.062;2022-07-29T08:27:47;21.20;99.90
9973;DHT22;5027;53.560;10.062;2022-07-29T08:30:14;21.20;99.90
9973;DHT22;5027;53.560;10.062;2022-07-29T08:32:41;21.20;99.90
9973;DHT22;5027;53.560;10.062;2022-07-29T08:35:24;21.20;99.90
9973;DHT22;5027;53.560;10.062;2022-07-29T08:37:52;21.30;99.90
9973;DHT22;5027;53.560;10.062;2022-07-29T08:40:19;21.30;99.90
9973;DHT22;5027;53.560;10.062;2022-07-29T08:42:59;21.30;99.90
9973;DHT22;5027;53.560;10.062;2022-07-29T08:45:28;21.30;99.90
9973;DHT22;5027;53.560;10.062;2022-07-29T08:47:56;21.20;99.90
9973;DHT22;5027;53.560;10.062;2022-07-29T08:50:23;21.20;99.90
9973;DHT22;5027;53.560;10.062;2022-07-29T08:52:50;21.20;99.90
9973;DHT22;5027;53.560;10.062;2022-07-29T08:55:23;21.30;99.90
9973;DHT22;5027;53.560;10.062;2022-07-29T08:57:50;21.20;99.90
9973;DHT22;5027;53.560;10.062;2022-07-29T09:00:23;21.20;99.90
9973;DHT22;5027;53.560;10.062;2022-07-29T09:02:56;21.30;99.90
9973;DHT22;5027;53.560;10.062;2022-07-29T09:05:24;21.30;99.90
9973;DHT22;5027;53.560;10.062;2022-07-29T09:07:52;21.30;99.90
9973;DHT22;5027;53.560;10.062;2022-07-29T09:10:19;21.20;99.90
9973;DHT22;5027;53.560;10.062;2022-07-29T09:12:46;21.20;99.90
9973;DHT22;5027;53.560;10.062;2022-07-29T09:15:13;21.20;99.90
9973;DHT22;5027;53.560;10.062;2022-07-29T09:17:47;21.30;99.90
9973;DHT22;5027;53.560;10.062;2022-07-29T09:20:16;21.30;99.90
9973;DHT22;5027;53.560;10.062;2022-07-29T09:22:44;21.20;99.90
9973;DHT22;5027;53.560;10.062;2022-07-29T09:25:13;21.20;99.90
9973;DHT22;5027;53.560;10.062;2022-07-29T09:27:40;21.20;99.90
9973;DHT22;5027;53.560;10.062;2022-07-29T09:30:08;21.20;99.90
9973;DHT22;5027;53.560;10.062;2022-07-29T09:32:55;21.20;99.90
9973;DHT22;5027;53.560;10.062;2022-07-29T09:35:24;21.20;99.90
9973;DHT22;5027;53.560;10.062;2022-07-29T09:37:51;21.30;99.90
9973;DHT22;5027;53.560;10.062;2022-07-29T09:40:26;21.30;99.90
9973;DHT22;5027;53.560;10.062;2022-07-29T09:42:54;21.30;99.90
9973;DHT22;5027;53.560;10.062;2022-07-29T09:45:32;21.20;99.90
9973;DHT22;5027;53.560;10.062;2022-07-29T09:48:12;21.20;99.90
9973;DHT22;5027;53.560;10.062;2022-07-29T09:50:40;21.20;99.90
9973;DHT22;5027;53.560;10.062;2022-07-29T09:53:07;21.20;99.90
9973;DHT22;5027;53.560;10.062;2022-07-29T09:55:50;21.30;99.90
9973;DHT22;5027;53.560;10.062;2022-07-29T09:58:18;21.30;99.90
9973;DHT22;5027;53.560;10.062;2022-07-29T10:00:47;21.20;99.90
9973;DHT22;5027;53.560;10.062;2022-07-29T10:03:15;21.20;99.90
9973;DHT22;5027;53.560;10.062;2022-07-29T10:05:43;21.30;99.90
9973;DHT22;5027;53.560;10.062;2022-07-29T10:08:10;21.30;99.90
9973;DHT22;5027;53.560;10.062;2022-07-29T10:10:41;21.30;99.90
9973;DHT22;5027;53.560;10.062;2022-07-29T10:13:13;21.30;99.90
9973;DHT22;5027;53.560;10.062;2022-07-29T10:15:43;21.30;99.90
9973;DHT22;5027;53.560;10.062;2022-07-29T10:18:13;21.30;99.90
9973;DHT22;5027;53.560;10.062;2022-07-29T10:20:41;21.30;99.90
9973;DHT22;5027;53.560;10.062;2022-07-29T10:23:09;21.30;99.90
9973;DHT22;5027;53.560;10.062;2022-07-29T10:25:36;21.30;99.90
9973;DHT22;5027;53.560;10.062;2022-07-29T10:28:02;21.20;99.90
9973;DHT22;5027;53.560;10.062;2022-07-29T10:30:31;21.20;99.90
9973;DHT22;5027;53.560;10.062;2022-07-29T10:33:24;21.10;99.90
9973;DHT22;5027;53.560;10.062;2022-07-29T10:36:07;21.20;99.90
9973;DHT22;5027;53.560;10.062;2022-07-29T10:44:18;21.00;99.90
9973;DHT22;5027;53.560;10.062;2022-07-29T10:47:05;21.10;99.90
9973;DHT22;5027;53.560;10.062;2022-07-29T10:49:32;21.10;99.90
9973;DHT22;5027;53.560;10.062;2022-07-29T10:54:43;21.10;99.90
9973;DHT22;5027;53.560;10.062;2022-07-29T10:57:32;21.10;99.90
9973;DHT22;5027;53.560;10.062;2022-07-29T11:00:28;21.20;99.90
9973;DHT22;5027;53.560;10.062;2022-07-29T11:02:55;21.20;99.90
9973;DHT22;5027;53.560;10.062;2022-07-29T11:05:24;21.10;99.90
9973;DHT22;5027;53.560;10.062;2022-07-29T11:08:19;21.10;99.90
9973;DHT22;5027;53.560;10.062;2022-07-29T11:11:30;21.10;99.90
9973;DHT22;5027;53.560;10.062;2022-07-29T11:16:09;21.20;99.90
9973;DHT22;5027;53.560;10.062;2022-07-29T11:21:44;21.10;99.90
9973;DHT22;5027;53.560;10.062;2022-07-29T11:24:31;21.20;99.90
9973;DHT22;5027;53.560;10.062;2022-07-29T11:27:12;21.20;99.90
9973;DHT22;5027;53.560;10.062;2022-07-29T11:29:51;21.20;99.90
9973;DHT22;5027;53.560;10.062;2022-07-29T11:32:20;21.20;99.90
9973;DHT22;5027;53.560;10.062;2022-07-29T11:35:10;21.20;99.90
9973;DHT22;5027;53.560;10.062;2022-07-29T11:37:45;21.30;99.90
9973;DHT22;5027;53.560;10.062;2022-07-29T11:40:32;21.30;99.90
9973;DHT22;5027;53.560;10.062;2022-07-29T11:42:59;21.20;99.90
9973;DHT22;5027;53.560;10.062;2022-07-29T11:45:45;21.20;99.90
9973;DHT22;5027;53.560;10.062;2022-07-29T11:48:17;21.20;99.90
9973;DHT22;5027;53.560;10.062;2022-07-29T11:50:57;21.20;99.90
9973;DHT22;5027;53.560;10.062;2022-07-29T11:53:24;21.30;99.90
9973;DHT22;5027;53.560;10.062;2022-07-29T11:55:55;21.30;99.90
9973;DHT22;5027;53.560;10.062;2022-07-29T11:58:24;21.30;99.90
9973;DHT22;5027;53.560;10.062;2022-07-29T12:00:52;21.30;99.90
9973;DHT22;5027;53.560;10.062;2022-07-29T12:03:26;21.30;99.90
9973;DHT22;5027;53.560;10.062;2022-07-29T12:06:04;21.40;99.90
9973;DHT22;5027;53.560;10.062;2022-07-29T12:08:42;21.40;99.90
9973;DHT22;5027;53.560;10.062;2022-07-29T12:11:17;21.40;99.90
9973;DHT22;5027;53.560;10.062;2022-07-29T12:13:47;21.50;99.90
9973;DHT22;5027;53.560;10.062;2022-07-29T12:16:14;21.60;99.90
9973;DHT22;5027;53.560;10.062;2022-07-29T12:19:01;21.70;99.90
9973;DHT22;5027;53.560;10.062;2022-07-29T12:21:47;22.00;99.90
9973;DHT22;5027;53.560;10.062;2022-07-29T12:24:22;22.00;99.90
9973;DHT22;5027;53.560;10.062;2022-07-29T12:29:20;21.70;99.90
9973;DHT22;5027;53.560;10.062;2022-07-29T12:32:03;21.80;99.90
9973;DHT22;5027;53.560;10.062;2022-07-29T12:34:40;21.80;99.90
9973;DHT22;5027;53.560;10.062;2022-07-29T12:37:09;21.90;99.90
9973;DHT22;5027;53.560;10.062;2022-07-29T12:39:36;22.10;99.90
9973;DHT22;5027;53.560;10.062;2022-07-29T12:42:14;22.00;99.90
9973;DHT22;5027;53.560;10.062;2022-07-29T12:44:48;21.90;99.90
9973;DHT22;5027;53.560;10.062;2022-07-29T12:47:15;21.70;99.90
9973;DHT22;5027;53.560;10.062;2022-07-29T12:49:42;21.80;99.90
9973;DHT22;5027;53.560;10.062;2022-07-29T12:54:52;21.80;99.90
9973;DHT22;5027;53.560;10.062;2022-07-29T12:57:19;21.70;99.90
9973;DHT22;5027;53.560;10.062;2022-07-29T13:00:08;21.80;99.90
9973;DHT22;5027;53.560;10.062;2022-07-29T13:02:38;21.70;99.90
9973;DHT22;5027;53.560;10.062;2022-07-29T13:05:06;21.70;99.90
9973;DHT22;5027;53.560;10.062;2022-07-29T13:07:34;21.60;99.90
9973;DHT22;5027;53.560;10.062;2022-07-29T13:10:22;21.80;99.90
9973;DHT22;5027;53.560;10.062;2022-07-29T13:13:06;22.20;99.90
9973;DHT22;5027;53.560;10.062;2022-07-29T13:15:33;22.50;99.90
9973;DHT22;5027;53.560;10.062;2022-07-29T13:18:00;22.60;99.90
9973;DHT22;5027;53.560;10.062;2022-07-29T13:20:28;22.60;99.90
9973;DHT22;5027;53.560;10.062;2022-07-29T13:22:59;22.60;98.90
9973;DHT22;5027;53.560;10.062;2022-07-29T13:25:30;22.60;99.90
9973;DHT22;5027;53.560;10.062;2022-07-29T13:27:59;22.40;99.90
9973;DHT22;5027;53.560;10.062;2022-07-29T13:30:26;22.10;99.90
9973;DHT22;5027;53.560;10.062;2022-07-29T13:32:53;22.00;99.90
9973;DHT22;5027;53.560;10.062;2022-07-29T13:35:20;21.80;99.90
9973;DHT22;5027;53.560;10.062;2022-07-29T13:37:47;21.80;99.90
9973;DHT22;5027;53.560;10.062;2022-07-29T13:40:13;21.70;99.90
9973;DHT22;5027;53.560;10.062;2022-07-29T13:42:41;21.70;99.90
9973;DHT22;5027;53.560;10.062;2022-07-29T13:45:09;21.70;99.90
9973;DHT22;5027;53.560;10.062;2022-07-29T13:47:37;21.70;99.90
9973;DHT22;5027;53.560;10.062;2022-07-29T13:50:05;21.70;99.90
9973;DHT22;5027;53.560;10.062;2022-07-29T13:52:33;21.70;99.90
9973;DHT22;5027;53.560;10.062;2022-07-29T13:55:01;21.70;99.90
9973;DHT22;5027;53.560;10.062;2022-07-29T13:57:29;21.70;99.90
9973;DHT22;5027;53.560;10.062;2022-07-29T13:59:56;21.70;99.90
9973;DHT22;5027;53.560;10.062;2022-07-29T14:02:23;21.70;99.90
9973;DHT22;5027;53.560;10.062;2022-07-29T14:04:52;21.70;99.90
9973;DHT22;5027;53.560;10.062;2022-07-29T14:07:19;21.80;99.90
9973;DHT22;5027;53.560;10.062;2022-07-29T14:09:46;21.70;99.90
9973;DHT22;5027;53.560;10.062;2022-07-29T14:12:13;21.80;99.90
9973;DHT22;5027;53.560;10.062;2022-07-29T14:14:39;21.70;99.90
9973;DHT22;5027;53.560;10.062;2022-07-29T14:17:06;21.70;99.90
9973;DHT22;5027;53.560;10.062;2022-07-29T14:19:34;21.70;99.90
9973;DHT22;5027;53.560;10.062;2022-07-29T14:22:06;21.70;99.90
9973;DHT22;5027;53.560;10.062;2022-07-29T14:24:34;21.70;99.90
9973;DHT22;5027;53.560;10.062;2022-07-29T14:27:03;21.80;99.90
9973;DHT22;5027;53.560;10.062;2022-07-29T14:29:30;21.70;99.90
9973;DHT22;5027;53.560;10.062;2022-07-29T14:32:08;21.80;99.90
9973;DHT22;5027;53.560;10.062;2022-07-29T14:34:36;21.80;99.90
9973;DHT22;5027;53.560;10.062;2022-07-29T14:37:04;21.70;99.90
9973;DHT22;5027;53.560;10.062;2022-07-29T14:39:33;21.70;99.90
9973;DHT22;5027;53.560;10.062;2022-07-29T14:42:08;21.70;99.90
9973;DHT22;5027;53.560;10.062;2022-07-29T14:44:38;21.70;99.90
9973;DHT22;5027;53.560;10.062;2022-07-29T14:47:06;21.60;99.90
9973;DHT22;5027;53.560;10.062;2022-07-29T14:49:34;21.60;99.90
9973;DHT22;5027;53.560;10.062;2022-07-29T14:52:01;21.70;99.90
9973;DHT22;5027;53.560;10.062;2022-07-29T14:54:27;21.60;99.90
9973;DHT22;5027;53.560;10.062;2022-07-29T14:56:54;21.70;99.90
9973;DHT22;5027;53.560;10.062;2022-07-29T14:59:24;21.70;99.90
9973;DHT22;5027;53.560;10.062;2022-07-29T15:01:51;21.70;99.90
9973;DHT22;5027;53.560;10.062;2022-07-29T15:04:18;21.70;99.90
9973;DHT22;5027;53.560;10.062;2022-07-29T15:06:45;21.70;99.90
9973;DHT22;5027;53.560;10.062;2022-07-29T15:09:14;21.70;99.90
9973;DHT22;5027;53.560;10.062;2022-07-29T15:11:40;21.80;99.90
9973;DHT22;5027;53.560;10.062;2022-07-29T15:14:07;21.80;99.90
9973;DHT22;5027;53.560;10.062;2022-07-29T15:16:38;21.80;99.90
9973;DHT22;5027;53.560;10.062;2022-07-29T15:19:09;21.80;99.90
9973;DHT22;5027;53.560;10.062;2022-07-29T15:21:36;21.80;99.90
9973;DHT22;5027;53.560;10.062;2022-07-29T15:24:14;21.80;99.90
9973;DHT22;5027;53.560;10.062;2022-07-29T15:26:41;21.90;99.90
9973;DHT22;5027;53.560;10.062;2022-07-29T15:29:09;21.90;99.90
9973;DHT22;5027;53.560;10.062;2022-07-29T15:31:35;22.00;99.90
9973;DHT22;5027;53.560;10.062;2022-07-29T15:34:02;22.00;99.90
9973;DHT22;5027;53.560;10.062;2022-07-29T15:36:32;21.90;99.90
9973;DHT22;5027;53.560;10.062;2022-07-29T15:39:18;21.90;99.90
9973;DHT22;5027;53.560;10.062;2022-07-29T15:41:45;21.80;99.90
9973;DHT22;5027;53.560;10.062;2022-07-29T15:44:12;21.80;99.90
9973;DHT22;5027;53.560;10.062;2022-07-29T15:46:39;21.70;99.90
9973;DHT22;5027;53.560;10.062;2022-07-29T15:49:25;21.70;99.90
9973;DHT22;5027;53.560;10.062;2022-07-29T15:52:16;21.80;99.90
9973;DHT22;5027;53.560;10.062;2022-07-29T15:54:51;21.80;99.90
9973;DHT22;5027;53.560;10.062;2022-07-29T15:57:18;21.80;99.90
9973;DHT22;5027;53.560;10.062;2022-07-29T15:59:45;21.80;99.90
9973;DHT22;5027;53.560;10.062;2022-07-29T16:02:12;21.90;99.90
9973;DHT22;5027;53.560;10.062;2022-07-29T16:04:38;21.90;99.90
9973;DHT22;5027;53.560;10.062;2022-07-29T16:07:05;21.80;99.90
9973;DHT22;5027;53.560;10.062;2022-07-29T16:09:33;21.80;99.90
9973;DHT22;5027;53.560;10.062;2022-07-29T16:11:59;21.80;99.90
9973;DHT22;5027;53.560;10.062;2022-07-29T16:14:26;21.90;99.90
9973;DHT22;5027;53.560;10.062;2022-07-29T16:16:54;21.80;99.90
9973;DHT22;5027;53.560;10.062;2022-07-29T16:19:22;21.80;99.90
9973;DHT22;5027;53.560;10.062;2022-07-29T16:21:48;21.80;99.90
9973;DHT22;5027;53.560;10.062;2022-07-29T16:24:15;21.80;99.90
9973;DHT22;5027;53.560;10.062;2022-07-29T16:26:42;21.80;99.90
9973;DHT22;5027;53.560;10.062;2022-07-29T16:29:08;21.80;99.90
9973;DHT22;5027;53.560;10.062;2022-07-29T16:31:35;21.80;99.90
9973;DHT22;5027;53.560;10.062;2022-07-29T16:34:02;21.80;99.90
9973;DHT22;5027;53.560;10.062;2022-07-29T16:36:29;21.80;99.90
9973;DHT22;5027;53.560;10.062;2022-07-29T16:38:55;21.80;99.90
9973;DHT22;5027;53.560;10.062;2022-07-29T16:41:22;21.80;99.90